Time,TemperatureF,DewpointF,PressureIn,WindDirection,WindDirectionDegrees,WindSpeedMPH,WindSpeedGustMPH,Humidity,HourlyPrecipIn,Conditions,Clouds,dailyrainin,SoftwareType,DateUTC
2013-02-19 05:41:00,31.0,26.0,30.24,WNW,292,0.0,19.0,80,0.00,,,0.00,Rainwise IP-100,2013-02-19 10:41:00,
2013-02-19 05:46:00,31.0,26.0,30.24,WSW,247,0.0,19.0,80,0.00,,,0.00,Rainwise IP-100,2013-02-19 10:46:00,
2013-02-19 05:51:00,30.0,26.0,30.24,WSW,247,0.0,0.0,80,0.00,,,0.00,Rainwise IP-100,2013-02-19 10:51:00,
2013-02-19 05:56:00,30.0,26.0,30.24,WSW,247,0.0,0.0,80,0.00,,,0.00,Rainwise IP-100,2013-02-19 10:56:00,
2013-02-19 06:01:00,30.0,26.0,30.24,WSW,247,0.0,0.0,80,0.00,,,0.00,Rainwise IP-100,2013-02-19 11:01:00,
2013-02-19 06:06:00,29.0,24.0,30.24,WSW,247,0.0,0.0,80,0.00,,,0.00,Rainwise IP-100,2013-02-19 11:06:00,
2013-02-19 06:12:00,29.0,24.0,30.24,SSW,202,0.0,0.0,80,0.00,,,0.00,Rainwise IP-100,2013-02-19 11:12:00,
2013-02-19 06:17:00,29.0,24.0,30.24,SSW,202,0.0,0.0,80,0.00,,,0.00,Rainwise IP-100,2013-02-19 11:17:00,
2013-02-19 06:22:00,28.0,23.0,30.24,SSW,202,0.0,0.0,80,0.00,,,0.00,Rainwise IP-100,2013-02-19 11:22:00,
2013-02-19 06:27:00,28.0,23.0,30.25,SSW,202,0.0,0.0,80,0.00,,,0.00,Rainwise IP-100,2013-02-19 11:27:00,
2013-02-19 06:32:00,29.0,24.0,30.25,South,180,0.0,0.0,80,0.00,,,0.00,Rainwise IP-100,2013-02-19 11:32:00,
2013-02-19 06:37:00,29.0,24.0,30.24,WSW,247,0.0,0.0,80,0.00,,,0.00,Rainwise IP-100,2013-02-19 11:37:00,
2013-02-19 06:42:00,29.0,24.0,30.24,WSW,247,0.0,0.0,80,0.00,,,0.00,Rainwise IP-100,2013-02-19 11:42:00,
2013-02-19 06:47:00,29.0,24.0,30.24,West,270,0.0,0.0,80,0.00,,,0.00,Rainwise IP-100,2013-02-19 11:47:00,
2013-02-19 06:52:00,29.0,24.0,30.24,West,270,0.0,0.0,80,0.00,,,0.00,Rainwise IP-100,2013-02-19 11:52:00,
2013-02-19 06:57:00,29.0,24.0,30.22,West,270,0.0,0.0,80,0.00,,,0.00,Rainwise IP-100,2013-02-19 11:57:00,
2013-02-19 07:02:00,30.0,26.0,30.22,SW,225,0.0,0.0,80,0.00,,,0.00,Rainwise IP-100,2013-02-19 12:02:00,
2013-02-19 07:07:00,31.0,26.0,30.23,WSW,247,0.0,0.0,80,0.00,,,0.00,Rainwise IP-100,2013-02-19 12:07:00,
2013-02-19 07:12:00,31.0,26.0,30.23,SW,225,0.0,1.0,80,0.00,,,0.00,Rainwise IP-100,2013-02-19 12:12:00,
2013-02-19 07:17:00,31.0,26.0,30.23,SW,225,0.0,0.0,80,0.00,,,0.00,Rainwise IP-100,2013-02-19 12:17:00,
2013-02-19 07:22:00,32.0,26.0,30.22,SSW,202,0.0,0.0,80,0.00,,,0.00,Rainwise IP-100,2013-02-19 12:22:00,
2013-02-19 09:48:00,42.0,36.0,30.16,SSE,157,0.0,0.0,78,0.00,,,0.00,Rainwise IP-100,2013-02-19 14:48:00,
2013-02-19 10:41:00,42.0,36.0,30.15,SW,225,11.0,11.0,78,0.00,,,0.00,Rainwise IP-100,2013-02-19 15:41:00,
2013-02-19 10:46:00,42.0,36.0,30.15,SW,225,13.0,15.0,78,0.00,,,0.00,Rainwise IP-100,2013-02-19 15:46:00,
2013-02-19 10:51:00,42.0,36.0,30.15,SSW,202,13.0,15.0,78,0.00,,,0.00,Rainwise IP-100,2013-02-19 15:51:00,
2013-02-19 10:56:00,42.0,36.0,30.15,SW,225,9.0,15.0,78,0.00,,,0.00,Rainwise IP-100,2013-02-19 15:56:00,
2013-02-19 11:01:00,42.0,36.0,30.15,SSW,202,13.0,15.0,78,0.00,,,0.00,Rainwise IP-100,2013-02-19 16:01:00,
2013-02-19 11:06:00,42.0,36.0,30.15,SSW,202,14.0,15.0,78,0.00,,,0.00,Rainwise IP-100,2013-02-19 16:06:00,
2013-02-19 11:11:00,43.0,37.0,30.14,SSE,157,0.0,15.0,79,0.00,,,0.00,Rainwise IP-100,2013-02-19 16:11:00,
2013-02-19 11:16:00,43.0,37.0,30.14,SE,135,4.0,9.0,79,0.00,,,0.00,Rainwise IP-100,2013-02-19 16:16:00,
2013-02-19 11:21:00,43.0,37.0,30.14,South,180,9.0,9.0,79,0.00,,,0.00,Rainwise IP-100,2013-02-19 16:21:00,
2013-02-19 11:26:00,43.0,37.0,30.14,ESE,112,3.0,9.0,79,0.00,,,0.00,Rainwise IP-100,2013-02-19 16:26:00,
2013-02-19 11:31:00,43.0,37.0,30.14,WNW,292,0.0,9.0,79,0.00,,,0.00,Rainwise IP-100,2013-02-19 16:31:00,
2013-02-19 11:36:00,43.0,37.0,30.14,WSW,247,0.0,9.0,79,0.00,,,0.00,Rainwise IP-100,2013-02-19 16:36:00,
2013-02-19 11:41:00,44.0,38.0,30.13,WSW,247,10.0,11.0,79,0.00,,,0.00,Rainwise IP-100,2013-02-19 16:41:00,
2013-02-19 11:47:00,44.0,38.0,30.13,WSW,247,10.0,11.0,79,0.00,,,0.00,Rainwise IP-100,2013-02-19 16:47:00,
2013-02-19 11:52:00,44.0,38.0,30.13,SE,135,2.0,11.0,79,0.00,,,0.00,Rainwise IP-100,2013-02-19 16:52:00,
2013-02-19 11:57:00,45.0,39.0,30.12,South,180,0.0,10.0,79,0.00,,,0.00,Rainwise IP-100,2013-02-19 16:57:00,
2013-02-19 12:02:00,44.0,38.0,30.12,SSE,157,7.0,9.0,79,0.00,,,0.00,Rainwise IP-100,2013-02-19 17:02:00,
2013-02-19 12:07:00,45.0,39.0,30.12,SSE,157,9.0,10.0,79,0.00,,,0.00,Rainwise IP-100,2013-02-19 17:07:00,
2013-02-19 12:12:00,45.0,39.0,30.11,SSE,157,2.0,10.0,79,0.00,,,0.00,Rainwise IP-100,2013-02-19 17:12:00,
2013-02-19 12:17:00,46.0,39.0,30.10,SW,225,2.0,7.0,79,0.00,,,0.00,Rainwise IP-100,2013-02-19 17:17:00,
2013-02-19 12:22:00,45.0,39.0,30.10,SW,225,4.0,7.0,79,0.00,,,0.00,Rainwise IP-100,2013-02-19 17:22:00,
2013-02-19 12:27:00,44.0,38.0,30.10,SSE,157,13.0,13.0,79,0.00,,,0.00,Rainwise IP-100,2013-02-19 17:27:00,
2013-02-19 12:32:00,44.0,38.0,30.10,South,180,15.0,15.0,79,0.00,,,0.00,Rainwise IP-100,2013-02-19 17:32:00,
2013-02-19 12:37:00,44.0,38.0,30.10,South,180,9.0,15.0,79,0.00,,,0.00,Rainwise IP-100,2013-02-19 17:37:00,
2013-02-19 12:42:00,44.0,38.0,30.09,SE,135,7.0,15.0,79,0.00,,,0.00,Rainwise IP-100,2013-02-19 17:42:00,
2013-02-19 12:47:00,44.0,38.0,30.09,South,180,12.0,17.0,79,0.00,,,0.00,Rainwise IP-100,2013-02-19 17:47:00,
2013-02-19 12:52:00,43.0,37.0,30.09,SE,135,10.0,15.0,79,0.00,,,0.00,Rainwise IP-100,2013-02-19 17:52:00,
2013-02-19 12:57:00,43.0,37.0,30.09,SSW,202,7.0,15.0,79,0.00,,,0.00,Rainwise IP-100,2013-02-19 17:57:00,
2013-02-19 13:03:00,43.0,37.0,30.09,South,180,10.0,10.0,79,0.00,,,0.00,Rainwise IP-100,2013-02-19 18:03:00,
2013-02-19 13:08:00,43.0,37.0,30.09,SSE,157,8.0,10.0,79,0.00,,,0.00,Rainwise IP-100,2013-02-19 18:08:00,
2013-02-19 13:13:00,44.0,38.0,30.09,South,180,12.0,20.0,79,0.00,,,0.00,Rainwise IP-100,2013-02-19 18:13:00,
2013-02-19 13:18:00,44.0,38.0,30.08,SSW,202,4.0,16.0,79,0.00,,,0.00,Rainwise IP-100,2013-02-19 18:18:00,
2013-02-19 13:23:00,44.0,38.0,30.08,South,180,9.0,16.0,79,0.00,,,0.00,Rainwise IP-100,2013-02-19 18:23:00,
2013-02-19 13:28:00,45.0,39.0,30.06,South,180,12.0,16.0,79,0.00,,,0.00,Rainwise IP-100,2013-02-19 18:28:00,
2013-02-19 13:33:00,45.0,39.0,30.06,South,180,9.0,16.0,79,0.00,,,0.00,Rainwise IP-100,2013-02-19 18:33:00,
2013-02-19 13:38:00,44.0,38.0,30.05,SE,135,9.0,20.0,79,0.00,,,0.00,Rainwise IP-100,2013-02-19 18:38:00,
2013-02-19 13:43:00,44.0,38.0,30.05,South,180,7.0,20.0,79,0.00,,,0.00,Rainwise IP-100,2013-02-19 18:43:00,
2013-02-19 13:48:00,44.0,38.0,30.06,SE,135,7.0,13.0,79,0.00,,,0.00,Rainwise IP-100,2013-02-19 18:48:00,
2013-02-19 13:54:00,44.0,38.0,30.06,SSW,202,9.0,13.0,79,0.00,,,0.00,Rainwise IP-100,2013-02-19 18:54:00,
2013-02-19 13:59:00,43.0,37.0,30.05,South,180,12.0,17.0,79,0.00,,,0.00,Rainwise IP-100,2013-02-19 18:59:00,
2013-02-19 14:04:00,44.0,38.0,30.05,South,180,5.0,17.0,79,0.00,,,0.00,Rainwise IP-100,2013-02-19 19:04:00,
2013-02-19 14:09:00,43.0,37.0,30.05,WSW,247,5.0,17.0,79,0.00,,,0.00,Rainwise IP-100,2013-02-19 19:09:00,
2013-02-19 14:14:00,44.0,38.0,30.05,SSW,202,5.0,16.0,79,0.00,,,0.00,Rainwise IP-100,2013-02-19 19:14:00,
2013-02-19 14:19:00,44.0,38.0,30.04,SE,135,2.0,13.0,79,0.00,,,0.00,Rainwise IP-100,2013-02-19 19:19:00,
2013-02-19 14:24:00,44.0,38.0,30.04,South,180,10.0,11.0,78,0.00,,,0.00,Rainwise IP-100,2013-02-19 19:24:00,
2013-02-19 14:29:00,44.0,38.0,30.03,South,180,8.0,15.0,78,0.00,,,0.00,Rainwise IP-100,2013-02-19 19:29:00,
2013-02-19 14:34:00,44.0,38.0,30.03,South,180,10.0,10.0,78,0.00,,,0.00,Rainwise IP-100,2013-02-19 19:34:00,
2013-02-19 14:39:00,45.0,38.0,30.02,SE,135,6.0,10.0,78,0.00,,,0.00,Rainwise IP-100,2013-02-19 19:39:00,
2013-02-19 14:44:00,45.0,38.0,30.02,SSW,202,13.0,15.0,78,0.00,,,0.00,Rainwise IP-100,2013-02-19 19:44:00,
2013-02-19 14:49:00,45.0,38.0,30.02,SW,225,1.0,15.0,78,0.00,,,0.00,Rainwise IP-100,2013-02-19 19:49:00,
2013-02-19 14:55:00,45.0,38.0,30.02,SSW,202,6.0,12.0,78,0.00,,,0.00,Rainwise IP-100,2013-02-19 19:55:00,
2013-02-19 15:00:00,46.0,39.0,30.01,SSW,202,6.0,17.0,78,0.00,,,0.00,Rainwise IP-100,2013-02-19 20:00:00,
2013-02-19 15:05:00,46.0,39.0,30.01,South,180,11.0,13.0,78,0.00,,,0.00,Rainwise IP-100,2013-02-19 20:05:00,
2013-02-19 15:10:00,46.0,39.0,30.00,South,180,7.0,19.0,78,0.00,,,0.00,Rainwise IP-100,2013-02-19 20:10:00,
2013-02-19 15:15:00,46.0,39.0,30.00,South,180,10.0,13.0,78,0.00,,,0.00,Rainwise IP-100,2013-02-19 20:15:00,
2013-02-19 15:20:00,45.0,38.0,30.00,South,180,11.0,13.0,78,0.00,,,0.00,Rainwise IP-100,2013-02-19 20:20:00,
2013-02-19 15:25:00,45.0,38.0,30.00,South,180,14.0,14.0,78,0.00,,,0.00,Rainwise IP-100,2013-02-19 20:25:00,
2013-02-19 15:30:00,45.0,38.0,29.99,SSW,202,9.0,14.0,77,0.00,,,0.00,Rainwise IP-100,2013-02-19 20:30:00,
2013-02-19 15:35:00,45.0,39.0,29.98,South,180,5.0,15.0,79,0.00,,,0.00,Rainwise IP-100,2013-02-19 20:35:00,
2013-02-19 15:40:00,45.0,38.0,29.98,South,180,2.0,14.0,77,0.00,,,0.00,Rainwise IP-100,2013-02-19 20:40:00,
2013-02-19 15:45:00,45.0,39.0,29.98,South,180,5.0,15.0,79,0.00,,,0.00,Rainwise IP-100,2013-02-19 20:45:00,
2013-02-19 15:51:00,45.0,38.0,29.98,South,180,10.0,13.0,77,0.00,,,0.00,Rainwise IP-100,2013-02-19 20:51:00,
2013-02-19 15:56:00,45.0,39.0,29.97,SSW,202,7.0,12.0,79,0.00,,,0.00,Rainwise IP-100,2013-02-19 20:56:00,
2013-02-19 16:01:00,45.0,38.0,29.97,SSE,157,10.0,15.0,77,0.00,,,0.00,Rainwise IP-100,2013-02-19 21:01:00,
2013-02-19 16:06:00,44.0,37.0,29.96,South,180,0.0,18.0,77,0.00,,,0.00,Rainwise IP-100,2013-02-19 21:06:00,
2013-02-19 16:11:00,45.0,38.0,29.96,South,180,4.0,16.0,77,0.00,,,0.00,Rainwise IP-100,2013-02-19 21:11:00,
2013-02-19 16:16:00,45.0,38.0,29.96,SSE,157,7.0,10.0,77,0.00,,,0.00,Rainwise IP-100,2013-02-19 21:16:00,
2013-02-19 16:21:00,45.0,38.0,29.96,SSW,202,6.0,13.0,77,0.00,,,0.00,Rainwise IP-100,2013-02-19 21:21:00,
2013-02-19 16:26:00,45.0,38.0,29.95,SSE,157,5.0,17.0,77,0.00,,,0.00,Rainwise IP-100,2013-02-19 21:26:00,
2013-02-19 16:31:00,44.0,37.0,29.95,SSE,157,6.0,15.0,77,0.00,,,0.00,Rainwise IP-100,2013-02-19 21:31:00,
2013-02-19 16:36:00,45.0,39.0,29.95,South,180,9.0,15.0,79,0.00,,,0.00,Rainwise IP-100,2013-02-19 21:36:00,
2013-02-19 16:41:00,44.0,37.0,29.95,SSE,157,12.0,15.0,77,0.00,,,0.00,Rainwise IP-100,2013-02-19 21:41:00,
2013-02-19 16:46:00,44.0,37.0,29.94,SSW,202,12.0,12.0,77,0.00,,,0.00,Rainwise IP-100,2013-02-19 21:46:00,
2013-02-19 16:51:00,45.0,38.0,29.94,SSW,202,3.0,15.0,77,0.00,,,0.00,Rainwise IP-100,2013-02-19 21:51:00,
2013-02-19 16:57:00,45.0,38.0,29.94,SSE,157,12.0,16.0,77,0.00,,,0.00,Rainwise IP-100,2013-02-19 21:57:00,
2013-02-19 17:02:00,45.0,38.0,29.94,South,180,6.0,16.0,77,0.00,,,0.00,Rainwise IP-100,2013-02-19 22:02:00,
2013-02-19 17:07:00,45.0,38.0,29.93,SSW,202,8.0,17.0,76,0.00,,,0.00,Rainwise IP-100,2013-02-19 22:07:00,
2013-02-19 17:12:00,45.0,38.0,29.93,SSW,202,7.0,17.0,76,0.00,,,0.00,Rainwise IP-100,2013-02-19 22:12:00,
2013-02-19 17:17:00,45.0,38.0,29.93,SSW,202,9.0,19.0,76,0.00,,,0.00,Rainwise IP-100,2013-02-19 22:17:00,
2013-02-19 17:22:00,44.0,37.0,29.93,South,180,7.0,19.0,76,0.00,,,0.00,Rainwise IP-100,2013-02-19 22:22:00,
2013-02-19 17:27:00,44.0,37.0,29.92,SSE,157,7.0,13.0,76,0.00,,,0.00,Rainwise IP-100,2013-02-19 22:27:00,
2013-02-19 17:32:00,44.0,37.0,29.92,South,180,6.0,15.0,75,0.00,,,0.00,Rainwise IP-100,2013-02-19 22:32:00,
2013-02-19 17:37:00,44.0,37.0,29.92,SW,225,8.0,15.0,75,0.00,,,0.00,Rainwise IP-100,2013-02-19 22:37:00,
2013-02-19 17:42:00,44.0,37.0,29.92,SSE,157,5.0,14.0,75,0.00,,,0.00,Rainwise IP-100,2013-02-19 22:42:00,
2013-02-19 17:47:00,44.0,37.0,29.92,South,180,9.0,15.0,75,0.00,,,0.00,Rainwise IP-100,2013-02-19 22:47:00,
2013-02-19 17:52:00,44.0,37.0,29.92,SE,135,7.0,14.0,75,0.00,,,0.00,Rainwise IP-100,2013-02-19 22:52:00,
2013-02-19 17:57:00,44.0,37.0,29.91,SSE,157,7.0,14.0,75,0.00,,,0.00,Rainwise IP-100,2013-02-19 22:57:00,
2013-02-19 18:02:00,44.0,37.0,29.91,SE,135,10.0,13.0,75,0.00,,,0.00,Rainwise IP-100,2013-02-19 23:02:00,
2013-02-19 18:07:00,44.0,36.0,29.90,SSE,157,6.0,12.0,74,0.00,,,0.00,Rainwise IP-100,2013-02-19 23:07:00,
2013-02-19 18:13:00,44.0,36.0,29.90,SSE,157,6.0,15.0,74,0.00,,,0.00,Rainwise IP-100,2013-02-19 23:13:00,
2013-02-19 18:18:00,44.0,36.0,29.89,South,180,4.0,15.0,74,0.00,,,0.00,Rainwise IP-100,2013-02-19 23:18:00,
2013-02-19 18:23:00,44.0,36.0,29.89,South,180,14.0,15.0,74,0.00,,,0.00,Rainwise IP-100,2013-02-19 23:23:00,
2013-02-19 18:28:00,45.0,37.0,29.85,SSE,157,7.0,17.0,74,0.00,,,0.00,Rainwise IP-100,2013-02-19 23:28:00,
2013-02-19 18:33:00,44.0,36.0,29.85,SSW,202,9.0,15.0,74,0.00,,,0.00,Rainwise IP-100,2013-02-19 23:33:00,
2013-02-19 18:38:00,44.0,36.0,29.87,SW,225,7.0,22.0,74,0.00,,,0.00,Rainwise IP-100,2013-02-19 23:38:00,
2013-02-19 18:43:00,44.0,36.0,29.87,SE,135,8.0,22.0,74,0.00,,,0.00,Rainwise IP-100,2013-02-19 23:43:00,
2013-02-19 18:48:00,44.0,36.0,29.85,South,180,10.0,16.0,74,0.00,,,0.00,Rainwise IP-100,2013-02-19 23:48:00,
2013-02-19 18:53:00,44.0,36.0,29.85,SSE,157,4.0,16.0,74,0.00,,,0.00,Rainwise IP-100,2013-02-19 23:53:00,
2013-02-19 18:58:00,45.0,37.0,29.84,ESE,112,0.0,16.0,74,0.00,,,0.00,Rainwise IP-100,2013-02-19 23:58:00,
2013-02-19 19:03:00,45.0,37.0,29.84,South,180,9.0,17.0,74,0.00,,,0.00,Rainwise IP-100,2013-02-20 00:03:00,
2013-02-19 19:08:00,44.0,36.0,29.83,South,180,10.0,20.0,74,0.00,,,0.00,Rainwise IP-100,2013-02-20 00:08:00,
2013-02-19 19:13:00,44.0,36.0,29.83,SSE,157,11.0,17.0,74,0.00,,,0.00,Rainwise IP-100,2013-02-20 00:13:00,
2013-02-19 19:18:00,45.0,37.0,29.83,South,180,5.0,20.0,74,0.00,,,0.00,Rainwise IP-100,2013-02-20 00:18:00,
2013-02-19 19:23:00,44.0,36.0,29.83,South,180,12.0,20.0,74,0.00,,,0.00,Rainwise IP-100,2013-02-20 00:23:00,
2013-02-19 19:29:00,45.0,37.0,29.81,SE,135,2.0,18.0,73,0.00,,,0.00,Rainwise IP-100,2013-02-20 00:29:00,
2013-02-19 19:34:00,45.0,37.0,29.81,SW,225,9.0,15.0,73,0.00,,,0.00,Rainwise IP-100,2013-02-20 00:34:00,
2013-02-19 19:39:00,45.0,37.0,29.81,SSE,157,9.0,19.0,73,0.00,,,0.00,Rainwise IP-100,2013-02-20 00:39:00,
2013-02-19 19:44:00,45.0,37.0,29.81,SSW,202,7.0,22.0,73,0.00,,,0.00,Rainwise IP-100,2013-02-20 00:44:00,
2013-02-19 19:49:00,45.0,37.0,29.79,SSE,157,8.0,16.0,73,0.00,,,0.00,Rainwise IP-100,2013-02-20 00:49:00,
2013-02-19 19:54:00,45.0,37.0,29.79,SW,225,10.0,26.0,72,0.00,,,0.00,Rainwise IP-100,2013-02-20 00:54:00,
2013-02-19 19:59:00,45.0,37.0,29.79,South,180,12.0,18.0,73,0.00,,,0.00,Rainwise IP-100,2013-02-20 00:59:00,
2013-02-19 20:04:00,45.0,37.0,29.79,SSE,157,11.0,16.0,72,0.00,,,0.00,Rainwise IP-100,2013-02-20 01:04:00,
2013-02-19 20:09:00,45.0,37.0,29.77,South,180,8.0,19.0,72,0.00,,,0.00,Rainwise IP-100,2013-02-20 01:09:00,
2013-02-19 20:14:00,45.0,37.0,29.77,SW,225,6.0,17.0,72,0.00,,,0.00,Rainwise IP-100,2013-02-20 01:14:00,
2013-02-19 20:19:00,45.0,37.0,29.76,SE,135,9.0,18.0,72,0.00,,,0.00,Rainwise IP-100,2013-02-20 01:19:00,
2013-02-19 20:24:00,45.0,37.0,29.76,SE,135,16.0,19.0,72,0.00,,,0.00,Rainwise IP-100,2013-02-20 01:24:00,
2013-02-19 20:29:00,45.0,37.0,29.76,South,180,6.0,17.0,72,0.00,,,0.00,Rainwise IP-100,2013-02-20 01:29:00,
2013-02-19 20:34:00,45.0,36.0,29.76,South,180,16.0,24.0,71,0.00,,,0.00,Rainwise IP-100,2013-02-20 01:34:00,
2013-02-19 20:39:00,45.0,36.0,29.74,SSE,157,12.0,20.0,71,0.00,,,0.00,Rainwise IP-100,2013-02-20 01:39:00,
2013-02-19 20:45:00,45.0,36.0,29.74,South,180,6.0,18.0,71,0.00,,,0.00,Rainwise IP-100,2013-02-20 01:45:00,
2013-02-19 20:50:00,45.0,36.0,29.73,SE,135,10.0,26.0,70,0.00,,,0.00,Rainwise IP-100,2013-02-20 01:50:00,
2013-02-19 20:55:00,45.0,37.0,29.73,SSE,157,11.0,22.0,74,0.00,,,0.00,Rainwise IP-100,2013-02-20 01:55:00,
2013-02-19 21:00:00,45.0,36.0,29.73,South,180,14.0,21.0,69,0.00,,,0.00,Rainwise IP-100,2013-02-20 02:00:00,
2013-02-19 21:05:00,45.0,36.0,29.73,SSW,202,5.0,22.0,69,0.00,,,0.00,Rainwise IP-100,2013-02-20 02:05:00,
2013-02-19 21:10:00,45.0,36.0,29.73,South,180,7.0,21.0,69,0.00,,,0.00,Rainwise IP-100,2013-02-20 02:10:00,
2013-02-19 21:15:00,46.0,36.0,29.73,South,180,7.0,31.0,68,0.00,,,0.00,Rainwise IP-100,2013-02-20 02:15:00,
2013-02-19 21:20:00,46.0,36.0,29.71,South,180,10.0,26.0,67,0.00,,,0.00,Rainwise IP-100,2013-02-20 02:20:00,
2013-02-19 21:25:00,46.0,38.0,29.68,South,180,20.0,23.0,73,0.00,,,0.00,Rainwise IP-100,2013-02-20 02:25:00,
2013-02-19 21:30:00,46.0,36.0,29.68,SSE,157,9.0,22.0,67,0.00,,,0.00,Rainwise IP-100,2013-02-20 02:30:00,
2013-02-19 21:35:00,46.0,37.0,29.69,South,180,16.0,22.0,72,0.00,,,0.00,Rainwise IP-100,2013-02-20 02:35:00,
2013-02-19 21:40:00,46.0,35.0,29.69,SE,135,3.0,22.0,65,0.00,,,0.00,Rainwise IP-100,2013-02-20 02:40:00,
2013-02-19 21:45:00,46.0,37.0,29.68,SSE,157,6.0,25.0,72,0.00,,,0.00,Rainwise IP-100,2013-02-20 02:45:00,
2013-02-19 21:50:00,46.0,35.0,29.68,SSE,157,7.0,24.0,64,0.00,,,0.00,Rainwise IP-100,2013-02-20 02:50:00,
2013-02-19 21:56:00,46.0,37.0,29.66,SSE,157,17.0,29.0,71,0.00,,,0.00,Rainwise IP-100,2013-02-20 02:56:00,
2013-02-19 22:01:00,46.0,35.0,29.66,SSE,157,12.0,22.0,63,0.00,,,0.00,Rainwise IP-100,2013-02-20 03:01:00,
2013-02-19 22:06:00,46.0,37.0,29.65,SW,225,17.0,25.0,70,0.00,,,0.00,Rainwise IP-100,2013-02-20 03:06:00,
2013-02-19 22:11:00,46.0,33.0,29.65,SE,135,10.0,25.0,61,0.00,,,0.00,Rainwise IP-100,2013-02-20 03:11:00,
2013-02-19 22:16:00,46.0,33.0,29.64,South,180,14.0,19.0,62,0.00,,,0.00,Rainwise IP-100,2013-02-20 03:16:00,
2013-02-19 22:21:00,46.0,33.0,29.64,SSE,157,13.0,23.0,61,0.00,,,0.00,Rainwise IP-100,2013-02-20 03:21:00,
2013-02-19 22:26:00,47.0,36.0,29.63,South,180,21.0,28.0,67,0.00,,,0.00,Rainwise IP-100,2013-02-20 03:26:00,
2013-02-19 22:31:00,47.0,32.0,29.63,South,180,7.0,28.0,57,0.00,,,0.00,Rainwise IP-100,2013-02-20 03:31:00,
2013-02-19 22:36:00,47.0,36.0,29.61,NE,45,4.0,22.0,66,0.00,,,0.00,Rainwise IP-100,2013-02-20 03:36:00,
2013-02-19 22:41:00,47.0,32.0,29.61,NW,315,6.0,25.0,56,0.00,,,0.00,Rainwise IP-100,2013-02-20 03:41:00,
2013-02-19 22:46:00,46.0,32.0,29.64,West,270,2.0,16.0,57,0.00,,,0.00,Rainwise IP-100,2013-02-20 03:46:00,
2013-02-19 22:51:00,46.0,31.0,29.64,WSW,247,11.0,12.0,55,0.00,,,0.00,Rainwise IP-100,2013-02-20 03:51:00,
2013-02-19 22:56:00,46.0,31.0,29.65,SW,225,9.0,20.0,56,0.00,,,0.00,Rainwise IP-100,2013-02-20 03:56:00,
2013-02-19 23:01:00,47.0,31.0,29.65,East,90,3.0,33.0,54,0.00,,,0.00,Rainwise IP-100,2013-02-20 04:01:00,
2013-02-19 23:07:00,47.0,31.0,29.63,WSW,247,9.0,21.0,54,0.00,,,0.00,Rainwise IP-100,2013-02-20 04:07:00,
2013-02-19 23:12:00,46.0,29.0,29.63,SW,225,12.0,16.0,53,0.00,,,0.00,Rainwise IP-100,2013-02-20 04:12:00,
2013-02-19 23:17:00,46.0,29.0,29.64,SSW,202,11.0,17.0,53,0.00,,,0.00,Rainwise IP-100,2013-02-20 04:17:00,
2013-02-19 23:22:00,47.0,31.0,29.64,SW,225,9.0,17.0,52,0.00,,,0.00,Rainwise IP-100,2013-02-20 04:22:00,
2013-02-19 23:27:00,47.0,29.0,29.62,SW,225,7.0,17.0,51,0.00,,,0.00,Rainwise IP-100,2013-02-20 04:27:00,
2013-02-19 23:32:00,46.0,29.0,29.62,SSW,202,7.0,13.0,51,0.00,,,0.00,Rainwise IP-100,2013-02-20 04:32:00,
2013-02-19 23:37:00,46.0,29.0,29.63,West,270,4.0,10.0,51,0.00,,,0.00,Rainwise IP-100,2013-02-20 04:37:00,
2013-02-19 23:42:00,45.0,28.0,29.63,WSW,247,9.0,11.0,51,0.00,,,0.00,Rainwise IP-100,2013-02-20 04:42:00,
2013-02-19 23:47:00,45.0,28.0,29.63,SSW,202,0.0,11.0,51,0.00,,,0.00,Rainwise IP-100,2013-02-20 04:47:00,
2013-02-19 23:52:00,45.0,28.0,29.63,NNW,337,0.0,7.0,50,0.00,,,0.00,Rainwise IP-100,2013-02-20 04:52:00,
2013-02-19 23:57:00,45.0,28.0,29.63,WNW,292,4.0,9.0,50,0.00,,,0.00,Rainwise IP-100,2013-02-20 04:57:00,